Flight Track Log - Related Links

Times and Time Zones

All times are in EDT time to prevent confusion due to time zone crossing. See the N612CT flight status page for this flight to view local times or setup timezone preferences in your user account.

Time Position Orientation Groundspeed Altitude Reporting Facility
EDT Latitude Longitude Course Direction KTS MPH feet Rate Location/Type
15:50 28.0500 -81.7667 180° South 93 107 800  Level Tampa TRACON
15:51 28.0000 -81.7667 180° South 131 151 1,600 779 Climbing Tampa TRACON
15:52 27.9711 -81.7536 158° South 29 33 2,500 712 Climbing Miami Center
15:53 27.9336 -81.7494 174° South 50 58 3,000 250 Climbing Miami Center
15:54 27.8900 -81.7453 175° South 126 145 3,000 500 Level Miami Center
15:55 27.8525 -81.7392 172° South 140 161 4,000 900 Climbing Miami Center
15:56 27.8153 -81.7350 174° South 140 161 4,800 750 Climbing Miami Center
15:57 27.7819 -81.7289 171° South 140 161 5,500 750 Climbing Miami Center
15:58 27.7444 -81.7250 175° South 135 155 6,300 750 Climbing Miami Center
15:59 27.7050 -81.7186 172° South 135 155 7,000 350 Climbing Miami Center
16:00 27.6614 -81.7144 175° South 147 169 7,000  Level Miami Center
16:01 27.6158 -81.7078 173° South 159 183 7,000  Level Miami Center
16:02 27.5742 -81.7036 175° South 165 190 7,000  Level Miami Center
16:03 27.5264 -81.6994 176° South 165 190 7,000  Level Miami Center
16:04 27.4806 -81.6950 175° South 160 184 7,000  Level Miami Center
16:05 27.4369 -81.6886 173° South 160 184 7,000  Level Miami Center
16:06 27.3933 -81.6819 172° South 160 184 7,000  Level Miami Center
16:07 27.3475 -81.6778 175° South 160 184 7,000  Level Miami Center
16:08 27.3039 -81.6714 173° South 160 184 7,000  Level Miami Center
16:09 27.2603 -81.6672 175° South 160 184 7,000  Level Miami Center
16:10 27.2167 -81.6608 173° South 160 184 7,000  Level Miami Center
16:11 27.1728 -81.6567 175° South 160 184 7,000  Level Miami Center
16:12 27.1272 -81.6522 175° South 160 184 7,000  Level Miami Center
16:13 27.0814 -81.6458 173° South 160 184 7,000  Level Miami Center
16:14 27.0356 -81.6392 173° South 160 184 7,000  Level Miami Center
16:15 26.9900 -81.6350 175° South 160 184 7,000  Level Miami Center
16:16 26.9442 -81.6308 175° South 160 184 7,000  Level Miami Center
16:17 26.8983 -81.6267 175° South 165 190 7,000 -200 Level Miami Center
16:18 26.8525 -81.6247 178° South 165 190 6,600 -450 Descending Miami Center
16:19 26.8025 -81.6203 175° South 177 204 6,100 -500 Descending Miami Center
16:20 26.7525 -81.6161 176° South 177 204 5,600 -500 Descending Miami Center
16:22 26.7065 -81.6390 204° Southwest  Level FlightAware Approximate
16:29 26.4228 -81.7184 189° South  Level FlightAware Approximate
16:30 26.3818 -81.7253 189° South  Level FlightAware Approximate
16:31 26.3409 -81.7321 188° South  Level FlightAware Approximate
16:32 26.3000 -81.7389 188° South  Level FlightAware Approximate
16:33 26.2590 -81.7457 188° South  Level FlightAware Approximate
16:34 26.2181 -81.7530 190° South  Level FlightAware Approximate
16:35 26.1774 -81.7612 190° South  Level FlightAware Approximate
16:36 26.1524 -81.7756 190° South  Level Estimated
16:37 26.1524 -81.7756 107° East  Level Estimated
16:38 26.1524 -81.7756 190° South  Level Estimated
16:39 26.1524 -81.7756 107° East  Level Estimated
16:40 26.1524 -81.7756 107° East  Level Estimated

Login

Don't have an account? Register now (free) for customized features, flight alerts, and more!